Time;durP1;ratioP1;P1;durP2;ratioP2;P2;SDS_P1;SDS_P2;PMS_P1;PMS_P2;Temp;Humidity;BMP_temperature;BMP_pressure;BME280_temperature;BME280_humidity;BME280_pressure;Samples;Min_cycle;Max_cycle;Signal;HPM_P1;HPM_P2
2022/07/09 00:02:24;;;;;;;6.13;2.90;;;11.40;99.90;;;;;;5071091;28;20213;-80
2022/07/09 00:04:52;;;;;;;5.83;2.40;;;11.40;99.90;;;;;;5071154;28;20355;-79
2022/07/09 00:07:22;;;;;;;6.80;2.47;;;11.40;99.90;;;;;;5072044;28;20583;-79
2022/07/09 00:09:51;;;;;;;5.70;2.67;;;11.30;99.90;;;;;;5074413;28;20261;-77
2022/07/09 00:12:19;;;;;;;4.57;2.50;;;11.30;99.90;;;;;;5074074;28;20211;-78
2022/07/09 00:14:47;;;;;;;5.57;2.93;;;11.30;99.90;;;;;;5074298;28;20298;-79
2022/07/09 00:17:15;;;;;;;6.03;2.53;;;11.20;99.90;;;;;;5074656;28;20207;-78
2022/07/09 00:19:43;;;;;;;5.33;2.63;;;11.20;99.90;;;;;;5073988;28;20661;-80
2022/07/09 00:22:12;;;;;;;6.97;2.50;;;11.20;99.90;;;;;;5074431;28;20238;-80
2022/07/09 00:24:41;;;;;;;4.83;2.67;;;11.20;99.90;;;;;;5073792;28;20254;-80
2022/07/09 00:27:09;;;;;;;5.30;2.47;;;11.10;99.90;;;;;;5074244;28;20302;-78
2022/07/09 00:29:37;;;;;;;6.20;2.57;;;11.10;99.90;;;;;;5074250;28;20229;-80
2022/07/09 00:32:06;;;;;;;6.77;2.67;;;11.10;99.90;;;;;;5074038;28;20214;-79
2022/07/09 00:34:34;;;;;;;7.50;2.67;;;11.10;99.90;;;;;;5074030;28;20299;-80
2022/07/09 00:37:03;;;;;;;7.73;2.80;;;11.10;99.90;;;;;;5073975;28;20239;-78
2022/07/09 00:39:31;;;;;;;5.00;2.70;;;11.10;99.90;;;;;;5074161;28;20245;-79
2022/07/09 00:42:08;;;;;;;7.23;2.50;;;11.20;99.90;;;;;;5073586;28;20222;-80
2022/07/09 00:44:37;;;;;;;4.67;2.30;;;11.20;99.90;;;;;;5074109;28;20294;-79
2022/07/09 00:47:07;;;;;;;4.03;2.40;;;11.20;99.90;;;;;;5073918;28;20231;-79
2022/07/09 00:49:39;;;;;;;5.53;2.70;;;11.20;99.90;;;;;;5073485;28;20625;-78
2022/07/09 00:52:10;;;;;;;5.87;2.80;;;11.20;99.90;;;;;;5074314;28;20619;-80
2022/07/09 00:54:40;;;;;;;8.47;2.87;;;11.20;99.90;;;;;;5073677;28;20247;-78
2022/07/09 00:57:10;;;;;;;5.07;2.60;;;11.20;99.90;;;;;;5065726;28;20618;-80
2022/07/09 00:59:40;;;;;;;4.93;2.40;;;11.20;99.90;;;;;;5073839;28;20606;-77
2022/07/09 01:02:08;;;;;;;5.27;2.77;;;11.10;99.90;;;;;;5073970;28;20675;-79
2022/07/09 01:04:39;;;;;;;4.83;2.40;;;11.10;99.90;;;;;;5073800;28;20277;-81
2022/07/09 01:07:07;;;;;;;3.50;2.30;;;11.20;99.90;;;;;;5074261;28;20207;-81
2022/07/09 01:09:36;;;;;;;4.30;2.53;;;11.20;99.90;;;;;;5073546;28;20231;-79
2022/07/09 01:12:05;;;;;;;9.70;2.90;;;11.20;99.90;;;;;;5073764;28;20223;-78
2022/07/09 01:14:35;;;;;;;5.73;2.83;;;11.20;99.90;;;;;;5074945;28;20203;-75
2022/07/09 01:17:05;;;;;;;6.23;2.40;;;11.30;99.90;;;;;;5076674;28;20242;-73
2022/07/09 01:19:34;;;;;;;7.70;2.70;;;11.30;99.90;;;;;;5075178;28;20215;-75
2022/07/09 01:22:05;;;;;;;7.23;2.53;;;11.30;99.90;;;;;;5075697;28;20302;-75
2022/07/09 01:24:34;;;;;;;6.43;2.67;;;11.30;99.90;;;;;;5075195;28;20211;-75
2022/07/09 01:27:03;;;;;;;6.37;2.70;;;11.40;99.90;;;;;;5076148;28;20658;-75
2022/07/09 01:29:31;;;;;;;13.13;2.80;;;11.40;99.90;;;;;;5076070;28;20211;-75
2022/07/09 01:32:00;;;;;;;6.00;2.50;;;11.40;99.90;;;;;;5074903;28;20227;-76
2022/07/09 01:34:28;;;;;;;4.30;2.50;;;11.50;99.90;;;;;;5076085;28;20238;-76
2022/07/09 01:36:56;;;;;;;6.43;2.43;;;11.50;99.90;;;;;;5075374;28;20204;-77
2022/07/09 01:39:25;;;;;;;5.77;2.67;;;11.50;99.90;;;;;;5073433;28;20716;-76
2022/07/09 01:41:53;;;;;;;5.47;2.60;;;11.50;99.90;;;;;;5072847;28;20481;-75
2022/07/09 01:44:22;;;;;;;4.60;2.67;;;11.60;99.90;;;;;;5073305;28;20254;-76
2022/07/09 01:46:50;;;;;;;5.87;2.77;;;11.60;99.90;;;;;;5072985;28;20296;-77
2022/07/09 01:49:18;;;;;;;7.20;2.60;;;11.70;99.90;;;;;;5074245;28;20207;-75
2022/07/09 01:51:46;;;;;;;6.47;2.50;;;11.70;99.90;;;;;;5074731;28;20636;-76
2022/07/09 01:54:14;;;;;;;5.67;2.60;;;11.70;99.90;;;;;;5075967;28;20238;-78
2022/07/09 01:56:44;;;;;;;6.47;2.53;;;11.70;99.90;;;;;;5074636;28;20288;-78
2022/07/09 01:59:12;;;;;;;4.70;2.50;;;11.70;99.90;;;;;;5073813;28;20215;-74
2022/07/09 02:01:40;;;;;;;7.53;2.63;;;11.70;99.90;;;;;;5063717;28;20307;-77
2022/07/09 02:04:08;;;;;;;6.23;2.40;;;11.80;99.90;;;;;;5054068;28;20234;-76
2022/07/09 02:06:37;;;;;;;4.87;2.37;;;11.80;99.90;;;;;;5054153;28;20619;-78
2022/07/09 02:09:06;;;;;;;5.53;2.70;;;11.80;99.90;;;;;;5053442;28;20208;-78
2022/07/09 02:11:35;;;;;;;7.67;2.70;;;11.80;99.90;;;;;;5053145;28;20271;-77
2022/07/09 02:14:05;;;;;;;5.50;2.50;;;11.80;99.90;;;;;;5054930;28;20219;-79
2022/07/09 02:16:33;;;;;;;4.87;2.57;;;11.80;99.90;;;;;;5054282;28;20240;-76
2022/07/09 02:19:01;;;;;;;5.40;2.60;;;11.90;99.90;;;;;;5057534;28;20417;-76
2022/07/09 02:21:29;;;;;;;6.73;2.80;;;11.90;99.90;;;;;;5057963;28;20280;-75
2022/07/09 02:23:58;;;;;;;5.63;2.60;;;11.90;99.90;;;;;;5056502;28;20208;-76
2022/07/09 02:26:27;;;;;;;3.43;2.60;;;11.90;99.90;;;;;;5056317;28;20236;-75
2022/07/09 02:28:56;;;;;;;5.73;2.80;;;11.90;99.90;;;;;;5052662;28;20212;-74
2022/07/09 02:31:26;;;;;;;4.90;2.70;;;11.90;99.90;;;;;;5052093;28;20224;-78
2022/07/09 02:33:54;;;;;;;7.67;2.70;;;12.00;99.90;;;;;;5052564;28;20261;-76
2022/07/09 02:36:22;;;;;;;5.57;2.63;;;12.00;99.90;;;;;;5052906;28;20326;-76
2022/07/09 02:38:50;;;;;;;7.30;2.47;;;12.10;99.90;;;;;;5051302;28;20737;-77
2022/07/09 02:41:19;;;;;;;9.43;2.93;;;12.20;99.90;;;;;;5051515;28;20749;-76
2022/07/09 02:43:47;;;;;;;5.57;2.50;;;12.10;99.90;;;;;;5051569;28;20674;-78
2022/07/09 02:46:16;;;;;;;4.90;2.53;;;12.20;99.90;;;;;;5051449;28;20271;-78
2022/07/09 02:48:45;;;;;;;6.00;2.53;;;12.20;99.90;;;;;;5051887;28;20243;-78
2022/07/09 02:51:13;;;;;;;4.80;2.60;;;12.10;99.90;;;;;;5051977;28;20239;-78
2022/07/09 02:53:41;;;;;;;8.23;2.50;;;12.20;99.90;;;;;;5051166;28;20749;-78
2022/07/09 02:56:09;;;;;;;4.73;2.37;;;12.10;99.90;;;;;;5057949;28;20208;-77
2022/07/09 02:58:38;;;;;;;4.87;2.17;;;12.20;99.90;;;;;;5071658;28;20231;-78
2022/07/09 03:01:06;;;;;;;5.37;2.50;;;12.20;99.90;;;;;;5071916;28;20257;-75
2022/07/09 03:03:36;;;;;;;6.97;2.80;;;12.20;99.90;;;;;;5071693;28;20203;-78
2022/07/09 03:06:07;;;;;;;4.97;2.43;;;12.20;99.90;;;;;;5062511;28;20247;-77
2022/07/09 03:08:36;;;;;;;6.90;2.73;;;12.20;99.90;;;;;;5050953;28;20270;-78
2022/07/09 03:11:06;;;;;;;6.60;2.67;;;12.20;99.90;;;;;;5051109;28;20303;-78
2022/07/09 03:13:34;;;;;;;5.50;2.57;;;12.20;99.90;;;;;;5051508;28;20277;-79
2022/07/09 03:16:03;;;;;;;6.77;2.60;;;12.20;99.90;;;;;;5051285;28;20212;-76
2022/07/09 03:18:31;;;;;;;5.50;2.80;;;12.20;99.90;;;;;;5050883;28;20258;-79
2022/07/09 03:21:00;;;;;;;8.37;2.80;;;12.20;99.90;;;;;;5051155;28;20289;-77
2022/07/09 03:23:30;;;;;;;5.83;2.73;;;12.20;99.90;;;;;;5051303;28;20359;-80
2022/07/09 03:25:58;;;;;;;6.70;3.17;;;12.20;99.90;;;;;;5051241;28;20302;-78
2022/07/09 03:28:26;;;;;;;6.53;2.73;;;12.20;99.90;;;;;;5051294;28;20553;-78
2022/07/09 03:30:55;;;;;;;7.90;3.03;;;12.20;99.90;;;;;;5050629;28;20669;-76
2022/07/09 03:33:24;;;;;;;5.40;2.60;;;12.20;99.90;;;;;;5050696;28;20232;-80
2022/07/09 03:35:53;;;;;;;6.63;2.90;;;12.20;99.90;;;;;;5051176;28;20319;-78
2022/07/09 03:38:21;;;;;;;5.17;2.77;;;12.20;99.90;;;;;;5051309;28;20299;-78
2022/07/09 03:40:52;;;;;;;5.57;2.80;;;12.20;99.90;;;;;;5050804;28;20246;-75
2022/07/09 03:43:20;;;;;;;6.90;2.77;;;12.20;99.90;;;;;;5053976;28;20193;-75
2022/07/09 03:45:48;;;;;;;9.33;2.90;;;12.20;99.90;;;;;;5054689;28;20251;-75
2022/07/09 03:48:17;;;;;;;5.53;2.70;;;12.20;99.90;;;;;;5054848;28;20208;-78
2022/07/09 03:50:45;;;;;;;4.90;2.60;;;12.30;99.90;;;;;;5054486;28;20234;-77
2022/07/09 03:53:13;;;;;;;6.93;3.00;;;12.30;99.90;;;;;;5054681;28;20686;-78
2022/07/09 03:55:42;;;;;;;3.70;2.47;;;12.40;99.90;;;;;;5069371;28;20235;-74
2022/07/09 03:58:11;;;;;;;5.57;2.50;;;12.40;99.90;;;;;;5074828;28;20217;-78
2022/07/09 04:00:40;;;;;;;4.37;2.63;;;12.40;99.90;;;;;;5074344;28;20744;-79
2022/07/09 04:03:08;;;;;;;6.70;2.50;;;12.50;99.90;;;;;;5059777;28;20294;-79
2022/07/09 04:05:37;;;;;;;5.67;2.53;;;12.50;99.90;;;;;;5054668;28;20316;-80
2022/07/09 04:08:06;;;;;;;5.43;2.57;;;12.60;99.90;;;;;;5054704;28;20233;-78
2022/07/09 04:10:34;;;;;;;5.77;2.70;;;12.60;99.90;;;;;;5053859;28;20720;-78
2022/07/09 04:13:02;;;;;;;5.63;2.57;;;12.70;99.90;;;;;;5054755;28;20318;-80
2022/07/09 04:15:33;;;;;;;4.87;2.73;;;12.80;99.90;;;;;;5054516;28;20235;-78
2022/07/09 04:18:01;;;;;;;6.37;2.70;;;12.80;99.90;;;;;;5054466;28;20602;-77
2022/07/09 04:20:29;;;;;;;4.77;2.50;;;12.90;99.90;;;;;;5054232;28;20222;-78
2022/07/09 04:22:57;;;;;;;4.40;2.70;;;12.90;99.90;;;;;;5054402;28;20296;-77
2022/07/09 04:25:26;;;;;;;5.80;2.60;;;13.00;99.90;;;;;;5054296;28;20212;-77
2022/07/09 04:27:54;;;;;;;4.83;2.40;;;13.00;99.90;;;;;;5054164;28;20794;-77
2022/07/09 04:30:22;;;;;;;7.53;2.70;;;13.10;99.90;;;;;;5053966;28;20763;-78
2022/07/09 04:32:51;;;;;;;3.97;2.40;;;13.10;99.90;;;;;;5053883;28;20271;-78
2022/07/09 04:35:19;;;;;;;5.83;2.67;;;13.20;99.90;;;;;;5054076;28;20297;-76
2022/07/09 04:37:48;;;;;;;6.03;2.40;;;13.20;99.90;;;;;;5053652;28;20281;-77
2022/07/09 04:40:17;;;;;;;6.23;2.60;;;13.30;99.90;;;;;;5053874;28;20208;-75
2022/07/09 04:42:45;;;;;;;6.07;2.70;;;13.40;99.90;;;;;;5053610;28;20254;-76
2022/07/09 04:45:13;;;;;;;4.57;2.40;;;13.50;99.90;;;;;;5053120;28;20204;-77
2022/07/09 04:47:41;;;;;;;6.13;2.77;;;13.60;99.90;;;;;;5053514;28;20315;-77
2022/07/09 04:50:12;;;;;;;4.87;2.60;;;13.60;99.90;;;;;;5053648;28;20208;-79
2022/07/09 04:52:40;;;;;;;4.33;2.50;;;13.70;99.90;;;;;;5054166;28;20830;-76
2022/07/09 04:55:10;;;;;;;5.23;2.40;;;13.80;99.90;;;;;;5072452;28;20621;-77
2022/07/09 04:57:38;;;;;;;4.57;2.43;;;13.80;99.90;;;;;;5073992;28;20578;-78
2022/07/09 05:00:07;;;;;;;5.43;2.40;;;13.90;99.90;;;;;;5073433;28;20214;-75
2022/07/09 05:02:36;;;;;;;4.43;2.40;;;14.00;99.90;;;;;;5074073;28;20234;-77
2022/07/09 05:05:06;;;;;;;4.90;2.70;;;14.00;99.90;;;;;;5074096;28;20215;-79
2022/07/09 05:07:35;;;;;;;5.03;2.50;;;14.10;99.90;;;;;;5073590;28;20302;-76
2022/07/09 05:10:05;;;;;;;3.07;2.23;;;14.10;99.90;;;;;;5073912;28;20270;-78
2022/07/09 05:12:33;;;;;;;5.53;2.37;;;14.20;99.90;;;;;;5073671;28;20717;-78
2022/07/09 05:15:02;;;;;;;5.97;2.40;;;14.20;99.90;;;;;;5073124;28;20730;-78
2022/07/09 05:17:34;;;;;;;6.17;2.60;;;14.20;99.90;;;;;;5073622;28;20298;-77
2022/07/09 05:20:04;;;;;;;4.83;2.37;;;14.30;99.90;;;;;;5073722;28;20200;-75
2022/07/09 05:22:33;;;;;;;3.80;2.40;;;14.30;99.90;;;;;;5073507;28;20203;-77
2022/07/09 05:25:03;;;;;;;6.10;2.60;;;14.40;99.90;;;;;;5073644;28;20211;-78
2022/07/09 05:27:32;;;;;;;7.37;2.60;;;14.50;99.90;;;;;;5073302;28;20283;-78
2022/07/09 05:30:00;;;;;;;4.63;2.53;;;14.50;99.90;;;;;;5073261;28;20254;-78
2022/07/09 05:32:28;;;;;;;4.57;2.70;;;14.60;99.90;;;;;;5073039;28;20258;-79
2022/07/09 05:34:56;;;;;;;7.33;2.53;;;14.50;99.90;;;;;;5072764;28;20636;-77
2022/07/09 05:37:25;;;;;;;4.30;2.30;;;14.60;99.90;;;;;;5073418;28;20314;-78
2022/07/09 05:39:53;;;;;;;5.37;2.50;;;14.70;99.90;;;;;;5072698;28;20304;-77
2022/07/09 05:42:22;;;;;;;4.23;2.10;;;14.80;99.90;;;;;;5072798;28;20302;-77
2022/07/09 05:44:51;;;;;;;3.47;2.10;;;14.80;99.90;;;;;;5072936;28;20249;-78
2022/07/09 05:47:19;;;;;;;2.93;2.27;;;14.90;99.90;;;;;;5072971;28;20318;-78
2022/07/09 05:49:47;;;;;;;6.67;2.77;;;14.90;99.90;;;;;;5072764;28;20650;-78
2022/07/09 05:52:15;;;;;;;5.40;2.53;;;14.90;99.90;;;;;;5073183;28;20211;-77
2022/07/09 05:54:44;;;;;;;6.30;2.63;;;14.90;99.90;;;;;;5072604;28;20780;-77
2022/07/09 05:57:12;;;;;;;4.37;2.40;;;14.90;99.90;;;;;;5072536;28;20661;-76
2022/07/09 05:59:41;;;;;;;5.43;2.40;;;14.80;99.90;;;;;;5072477;28;20303;-78
2022/07/09 06:02:09;;;;;;;5.97;2.57;;;14.90;99.90;;;;;;5065891;28;20295;-78
2022/07/09 06:04:38;;;;;;;5.80;2.60;;;14.70;99.90;;;;;;5052318;28;20477;-79
2022/07/09 06:07:06;;;;;;;4.93;2.47;;;14.70;99.90;;;;;;5053719;28;20307;-77
2022/07/09 06:09:34;;;;;;;4.47;2.33;;;14.70;99.90;;;;;;5053233;28;20220;-76
2022/07/09 06:12:03;;;;;;;5.30;2.43;;;14.60;99.90;;;;;;5052222;28;20721;-76
2022/07/09 06:14:32;;;;;;;5.20;2.50;;;14.60;99.90;;;;;;5052292;28;20326;-80
2022/07/09 06:17:05;;;;;;;6.23;2.87;;;14.60;99.90;;;;;;5052232;28;20311;-77
2022/07/09 06:19:34;;;;;;;7.53;2.80;;;14.60;99.90;;;;;;5051863;28;20688;-79
2022/07/09 06:22:03;;;;;;;5.50;2.63;;;14.50;99.90;;;;;;5052020;28;20697;-78
2022/07/09 06:24:31;;;;;;;4.00;2.57;;;14.40;99.90;;;;;;5052255;28;20235;-76
2022/07/09 06:26:59;;;;;;;6.13;2.70;;;14.50;99.90;;;;;;5052198;28;20223;-77
2022/07/09 06:29:27;;;;;;;3.60;2.50;;;14.50;99.90;;;;;;5051632;28;20753;-77
2022/07/09 06:31:59;;;;;;;8.97;3.30;;;14.50;99.90;;;;;;5052200;28;20307;-78
2022/07/09 06:34:29;;;;;;;4.77;2.70;;;14.50;99.90;;;;;;5051558;28;20224;-78
2022/07/09 06:36:57;;;;;;;5.57;2.87;;;14.60;99.90;;;;;;5052115;28;20243;-77
2022/07/09 06:42:13;;;;;;;4.10;2.70;;;14.50;99.90;;;;;;5051421;28;20222;-77
2022/07/09 06:44:42;;;;;;;4.67;2.80;;;14.60;99.90;;;;;;5051845;28;20275;-78
2022/07/09 06:47:10;;;;;;;5.53;2.43;;;14.60;99.90;;;;;;5051592;28;20263;-79
2022/07/09 06:49:40;;;;;;;8.17;2.80;;;14.80;99.90;;;;;;5051206;28;20828;-77
2022/07/09 06:52:09;;;;;;;4.43;2.63;;;14.80;99.90;;;;;;5071468;28;20207;-78
2022/07/09 06:54:38;;;;;;;6.20;2.60;;;14.80;99.90;;;;;;5071356;28;20263;-77
2022/07/09 06:57:09;;;;;;;6.37;2.30;;;14.90;99.90;;;;;;5071804;28;20306;-78
2022/07/09 06:59:37;;;;;;;5.80;2.70;;;14.90;99.90;;;;;;5071557;28;20232;-79
2022/07/09 07:02:05;;;;;;;5.57;2.50;;;15.00;99.90;;;;;;5071605;28;20259;-77
2022/07/09 07:04:34;;;;;;;5.33;2.60;;;15.00;99.90;;;;;;5071841;28;20199;-77
2022/07/09 07:07:04;;;;;;;6.23;2.83;;;15.00;99.90;;;;;;5072037;28;20225;-75
2022/07/09 07:09:32;;;;;;;6.63;2.50;;;15.10;99.90;;;;;;5072257;28;20274;-75
2022/07/09 07:12:01;;;;;;;3.73;2.47;;;15.10;99.90;;;;;;5053885;28;20248;-75
2022/07/09 07:14:29;;;;;;;5.20;2.77;;;15.20;99.90;;;;;;5051597;28;20327;-76
2022/07/09 07:16:57;;;;;;;4.40;2.47;;;15.20;99.90;;;;;;5050868;28;20235;-78
2022/07/09 07:19:25;;;;;;;6.37;2.70;;;15.30;99.90;;;;;;5051194;28;20204;-78
2022/07/09 07:21:54;;;;;;;4.63;2.50;;;15.40;99.90;;;;;;5051475;28;20247;-76
2022/07/09 07:24:23;;;;;;;5.10;2.50;;;15.50;99.90;;;;;;5051452;28;20250;-78
2022/07/09 07:26:51;;;;;;;4.30;2.47;;;15.60;99.90;;;;;;5050969;28;20295;-77
2022/07/09 07:29:20;;;;;;;5.93;2.57;;;15.70;99.90;;;;;;5051069;28;20203;-77
2022/07/09 07:31:49;;;;;;;6.27;2.33;;;15.80;99.90;;;;;;5050962;28;20247;-76
2022/07/09 07:34:18;;;;;;;4.60;2.33;;;16.00;99.90;;;;;;5051223;28;20224;-79
2022/07/09 07:36:50;;;;;;;5.97;2.43;;;16.20;99.90;;;;;;5051455;28;20636;-79
2022/07/09 07:39:18;;;;;;;9.00;2.30;;;16.40;99.90;;;;;;5051101;28;20219;-78
2022/07/09 07:41:48;;;;;;;7.20;2.30;;;16.60;99.90;;;;;;5050927;28;20308;-77
2022/07/09 07:44:17;;;;;;;4.33;2.30;;;16.80;99.90;;;;;;5051087;28;20232;-76
2022/07/09 07:46:45;;;;;;;3.33;2.10;;;17.20;99.90;;;;;;5050502;28;20260;-77
2022/07/09 07:49:13;;;;;;;4.80;2.00;;;17.60;99.90;;;;;;5057553;28;20672;-76
2022/07/09 07:51:42;;;;;;;4.20;2.07;;;18.00;99.90;;;;;;5071194;28;20302;-76
2022/07/09 07:54:10;;;;;;;5.90;2.20;;;18.20;99.90;;;;;;5071108;28;20245;-78
2022/07/09 07:56:39;;;;;;;4.93;2.30;;;18.90;99.90;;;;;;5071115;28;20261;-78
2022/07/09 07:59:09;;;;;;;6.50;2.20;;;19.40;99.90;;;;;;5070833;28;20295;-77
2022/07/09 08:01:37;;;;;;;5.33;1.90;;;19.90;99.90;;;;;;5070855;28;20265;-76
2022/07/09 08:04:05;;;;;;;5.63;2.00;;;20.70;99.90;;;;;;5071053;28;20208;-76
2022/07/09 08:06:34;;;;;;;3.87;1.83;;;21.70;99.90;;;;;;5071170;28;20243;-76
2022/07/09 08:09:02;;;;;;;6.00;1.80;;;23.10;99.90;;;;;;5070903;28;20200;-75
2022/07/09 08:11:30;;;;;;;4.53;1.80;;;23.90;99.90;;;;;;5070757;28;20705;-76
2022/07/09 08:13:58;;;;;;;4.97;1.80;;;24.10;99.90;;;;;;5071147;28;20216;-77
2022/07/09 08:16:28;;;;;;;4.50;1.73;;;24.80;99.90;;;;;;5070652;28;20222;-75
2022/07/09 08:18:56;;;;;;;5.90;1.92;;;26.00;99.90;;;;;;5070614;28;20233;-78
2022/07/09 08:21:26;;;;;;;2.88;1.45;;;26.90;99.10;;;;;;5070677;28;20207;-77
2022/07/09 08:23:55;;;;;;;4.57;2.15;;;27.80;96.00;;;;;;5070909;28;20234;-78
2022/07/09 08:26:25;;;;;;;8.88;1.92;;;28.50;93.60;;;;;;5070853;28;20208;-76
2022/07/09 08:28:53;;;;;;;5.50;1.50;;;28.70;91.50;;;;;;5072097;28;20211;-76
2022/07/09 08:31:22;;;;;;;5.43;1.70;;;28.60;90.80;;;;;;5074209;28;20207;-76
2022/07/09 08:33:53;;;;;;;7.60;1.88;;;28.30;91.20;;;;;;5073833;28;20701;-77
2022/07/09 08:36:21;;;;;;;2.75;1.38;;;28.60;90.80;;;;;;5073702;28;20673;-77
2022/07/09 08:38:49;;;;;;;4.05;1.55;;;29.00;86.90;;;;;;5073817;28;20627;-76
2022/07/09 08:41:20;;;;;;;3.47;1.60;;;28.80;87.20;;;;;;5073601;28;20226;-75
2022/07/09 08:43:54;;;;;;;4.82;1.80;;;28.80;87.20;;;;;;5074016;28;20191;-75
2022/07/09 08:46:23;;;;;;;4.07;1.60;;;28.90;85.70;;;;;;5073399;28;20235;-75
2022/07/09 08:48:55;;;;;;;4.10;1.60;;;29.40;84.00;;;;;;5073677;28;20227;-77
2022/07/09 08:51:24;;;;;;;4.57;1.80;;;29.80;82.80;;;;;;5068754;28;20236;-75
2022/07/09 08:53:54;;;;;;;2.78;1.45;;;30.10;82.20;;;;;;5054044;28;20210;-75
2022/07/09 08:56:23;;;;;;;4.40;1.45;;;29.60;85.30;;;;;;5053644;28;20232;-75
2022/07/09 08:58:51;;;;;;;4.82;1.80;;;29.30;77.40;;;;;;5053524;28;20622;-76
2022/07/09 09:01:19;;;;;;;4.78;1.50;;;28.90;81.30;;;;;;5053795;28;20247;-74
2022/07/09 09:03:48;;;;;;;4.22;1.50;;;28.90;82.80;;;;;;5053459;28;20689;-77
2022/07/09 09:06:21;;;;;;;3.88;1.60;;;28.70;82.90;;;;;;5053955;28;20307;-75
2022/07/09 09:08:54;;;;;;;7.50;1.98;;;29.10;80.00;;;;;;5053438;28;20204;-75
2022/07/09 09:11:25;;;;;;;4.30;1.65;;;29.40;84.30;;;;;;5053358;28;20626;-75
2022/07/09 09:13:53;;;;;;;5.22;1.63;;;30.00;83.70;;;;;;5053355;28;20208;-75
2022/07/09 09:16:22;;;;;;;6.90;1.42;;;30.30;80.70;;;;;;5053073;28;20243;-75
2022/07/09 09:18:53;;;;;;;5.05;1.33;;;30.40;78.50;;;;;;5053172;28;20290;-75
2022/07/09 09:21:24;;;;;;;3.42;1.40;;;29.80;79.40;;;;;;5053604;28;20299;-76
2022/07/09 09:23:54;;;;;;;3.78;1.58;;;29.40;79.00;;;;;;5053374;28;20271;-75
2022/07/09 09:26:24;;;;;;;8.00;1.60;;;29.10;79.20;;;;;;5053539;28;20204;-76
2022/07/09 09:28:53;;;;;;;4.45;1.60;;;28.90;77.40;;;;;;5053101;28;20295;-76
2022/07/09 09:31:23;;;;;;;4.85;1.30;;;29.70;78.10;;;;;;5052872;28;20255;-75
2022/07/09 09:33:53;;;;;;;3.53;1.55;;;30.20;77.50;;;;;;5052840;28;20216;-77
2022/07/09 09:36:33;;;;;;;6.55;1.65;;;30.50;79.70;;;;;;5053164;28;20263;-76
2022/07/09 09:39:13;;;;;;;6.53;1.67;;;31.10;74.50;;;;;;5052344;28;20704;-74
2022/07/09 09:41:43;;;;;;;7.10;1.90;;;30.80;75.60;;;;;;5052315;28;20853;-75
2022/07/09 09:44:12;;;;;;;6.25;1.88;;;31.40;76.70;;;;;;5052809;28;20274;-76
2022/07/09 09:46:42;;;;;;;3.60;1.50;;;31.60;73.20;;;;;;5061988;28;20624;-77
2022/07/09 09:49:14;;;;;;;5.43;1.60;;;30.60;77.30;;;;;;5072260;28;20707;-77
2022/07/09 09:51:51;;;;;;;5.95;1.65;;;30.80;77.10;;;;;;5072629;28;20211;-79
2022/07/09 09:54:21;;;;;;;5.28;1.70;;;31.00;77.40;;;;;;5072200;28;20207;-76
2022/07/09 09:56:50;;;;;;;6.45;1.88;;;31.00;74.80;;;;;;5072643;28;20278;-77
2022/07/09 09:59:19;;;;;;;3.00;1.50;;;32.10;77.20;;;;;;5072111;28;20246;-76
2022/07/09 10:01:47;;;;;;;5.95;1.67;;;31.70;72.90;;;;;;5072444;28;20214;-75
2022/07/09 10:04:16;;;;;;;3.03;1.42;;;31.40;74.30;;;;;;5072722;28;20253;-77
2022/07/09 10:06:45;;;;;;;3.75;1.60;;;31.50;73.80;;;;;;5072443;28;20199;-78
2022/07/09 10:09:15;;;;;;;5.43;1.77;;;31.60;75.10;;;;;;5071604;28;20665;-77
2022/07/09 10:11:45;;;;;;;4.88;1.70;;;31.40;71.30;;;;;;5071973;28;20227;-76
2022/07/09 10:14:18;;;;;;;3.03;1.40;;;31.30;73.10;;;;;;5071994;28;20211;-76
2022/07/09 10:16:46;;;;;;;11.38;1.75;;;31.00;73.60;;;;;;5071873;28;20267;-75
2022/07/09 10:19:25;;;;;;;4.63;1.60;;;30.90;74.20;;;;;;5071641;28;20199;-77
2022/07/09 10:21:54;;;;;;;3.58;1.67;;;31.00;73.80;;;;;;5072088;28;20227;-77
2022/07/09 10:24:29;;;;;;;4.22;1.50;;;30.70;71.80;;;;;;5072130;28;20219;-78
2022/07/09 10:27:05;;;;;;;4.80;1.70;;;31.10;69.30;;;;;;5071995;28;20279;-75
2022/07/09 10:29:35;;;;;;;5.07;1.90;;;31.20;73.90;;;;;;5071540;28;20207;-77
2022/07/09 10:32:05;;;;;;;3.38;1.70;;;31.50;70.00;;;;;;5072140;28;20234;-78
2022/07/09 10:34:45;;;;;;;3.60;1.50;;;31.70;67.60;;;;;;5071750;28;20732;-75
2022/07/09 10:37:13;;;;;;;2.38;1.33;;;30.70;66.90;;;;;;5071933;28;20225;-78
2022/07/09 10:39:54;;;;;;;6.57;1.65;;;29.60;73.10;;;;;;5071519;28;20211;-76
2022/07/09 10:42:24;;;;;;;3.70;1.38;;;29.00;76.90;;;;;;5071567;28;20314;-75
2022/07/09 10:44:53;;;;;;;5.22;1.52;;;28.10;77.00;;;;;;5071746;28;20298;-75
2022/07/09 10:47:21;;;;;;;4.85;1.63;;;27.00;79.20;;;;;;5071909;28;20249;-77
2022/07/09 10:49:49;;;;;;;2.92;1.20;;;26.50;78.80;;;;;;5071511;28;20337;-75
2022/07/09 10:52:17;;;;;;;4.50;1.53;;;25.60;81.90;;;;;;5070832;28;20302;-76
2022/07/09 10:54:50;;;;;;;8.67;1.67;;;25.00;82.70;;;;;;5071444;28;20207;-76
2022/07/09 10:57:18;;;;;;;3.70;1.30;;;24.60;84.60;;;;;;5071242;28;20247;-76
2022/07/09 10:59:47;;;;;;;3.20;1.40;;;23.90;89.90;;;;;;5071757;28;20622;-74
2022/07/09 11:02:20;;;;;;;7.30;1.67;;;23.40;90.30;;;;;;5071554;28;20211;-76
2022/07/09 11:04:52;;;;;;;6.47;1.83;;;22.90;92.80;;;;;;5071498;28;20624;-77
2022/07/09 11:07:22;;;;;;;5.97;1.70;;;22.50;93.10;;;;;;5071671;28;20210;-78
2022/07/09 11:09:53;;;;;;;2.77;1.50;;;22.20;95.60;;;;;;5071764;28;20242;-78
2022/07/09 11:12:22;;;;;;;6.80;1.57;;;22.20;94.10;;;;;;5071741;28;20279;-77
2022/07/09 11:14:52;;;;;;;8.87;1.60;;;22.20;96.30;;;;;;5071343;28;20207;-79
2022/07/09 11:17:21;;;;;;;8.40;1.43;;;22.40;97.20;;;;;;5071375;28;20265;-77
2022/07/09 11:19:50;;;;;;;8.67;1.90;;;22.60;96.10;;;;;;5071538;28;20410;-76
2022/07/09 11:22:18;;;;;;;4.97;1.70;;;22.90;95.20;;;;;;5071122;28;20211;-74
2022/07/09 11:24:46;;;;;;;2.27;1.33;;;23.00;93.30;;;;;;5071362;28;20227;-76
2022/07/09 11:27:15;;;;;;;5.47;1.57;;;23.30;93.10;;;;;;5071278;28;20258;-76
2022/07/09 11:29:48;;;;;;;5.33;1.40;;;24.10;96.40;;;;;;5071313;28;20298;-76
2022/07/09 11:32:17;;;;;;;3.23;1.50;;;25.60;91.00;;;;;;5071639;28;20282;-77
2022/07/09 11:34:51;;;;;;;3.93;1.47;;;25.60;92.00;;;;;;5071604;28;20211;-76
2022/07/09 11:37:24;;;;;;;3.80;1.33;;;25.40;89.60;;;;;;5071464;28;20254;-75
2022/07/09 11:39:54;;;;;;;6.70;1.50;;;25.40;90.90;;;;;;5071230;28;20294;-74
2022/07/09 11:42:23;;;;;;;5.30;1.43;;;25.60;90.20;;;;;;5071079;28;20215;-77
2022/07/09 11:44:55;;;;;;;3.17;1.30;;;25.40;90.30;;;;;;5070884;28;20293;-75
2022/07/09 11:47:33;;;;;;;3.87;1.30;;;25.20;89.50;;;;;;5071365;28;20215;-79
2022/07/09 11:50:07;;;;;;;3.70;1.30;;;25.80;90.30;;;;;;5070994;28;20237;-77
2022/07/09 11:52:35;;;;;;;5.87;1.60;;;25.80;90.90;;;;;;5071122;28;20246;-73
2022/07/09 11:55:11;;;;;;;2.67;1.17;;;26.00;90.60;;;;;;5070979;28;20201;-73
2022/07/09 11:57:51;;;;;;;2.10;1.30;;;26.40;92.00;;;;;;5071440;28;20227;-78
2022/07/09 12:00:27;;;;;;;3.60;1.40;;;26.10;90.80;;;;;;5071365;28;20206;-75
2022/07/09 12:02:56;;;;;;;3.73;1.33;;;25.60;90.40;;;;;;5071745;28;20222;-76
2022/07/09 12:05:27;;;;;;;2.53;1.27;;;25.20;90.50;;;;;;5074996;28;20225;-76
2022/07/09 12:07:55;;;;;;;3.67;1.30;;;25.00;90.40;;;;;;5075083;28;20184;-75
2022/07/09 12:10:29;;;;;;;3.17;1.23;;;25.20;90.50;;;;;;5074266;28;20250;-77
2022/07/09 12:12:59;;;;;;;3.23;1.30;;;24.90;88.90;;;;;;5074432;28;20247;-78
2022/07/09 12:15:27;;;;;;;6.33;1.60;;;24.60;90.00;;;;;;5075003;28;20196;-79
2022/07/09 12:17:58;;;;;;;3.23;1.30;;;24.50;91.00;;;;;;5074562;28;20262;-76
2022/07/09 12:20:29;;;;;;;2.40;1.30;;;24.20;89.00;;;;;;5074430;28;20230;-76
2022/07/09 12:22:58;;;;;;;4.93;1.50;;;23.80;90.50;;;;;;5074286;28;20203;-77
2022/07/09 12:25:26;;;;;;;3.33;1.33;;;23.60;90.80;;;;;;5074053;28;20242;-78
2022/07/09 12:27:54;;;;;;;3.27;1.20;;;23.50;91.70;;;;;;5074537;28;20238;-76
2022/07/09 12:30:24;;;;;;;3.60;1.20;;;23.40;90.40;;;;;;5074086;28;20208;-77
2022/07/09 12:32:53;;;;;;;2.73;1.17;;;23.10;91.50;;;;;;5074676;28;20261;-76
2022/07/09 12:35:21;;;;;;;4.00;1.60;;;22.90;92.00;;;;;;5074352;28;20297;-76
2022/07/09 12:37:50;;;;;;;2.70;1.20;;;22.90;93.10;;;;;;5074136;28;20599;-78
2022/07/09 12:40:18;;;;;;;3.63;1.30;;;22.90;93.80;;;;;;5074177;28;20287;-76
2022/07/09 12:42:46;;;;;;;3.97;1.30;;;23.10;95.00;;;;;;5070797;28;20247;-76
2022/07/09 12:45:15;;;;;;;3.27;1.30;;;23.20;93.70;;;;;;5072997;28;20298;-77
2022/07/09 12:47:44;;;;;;;1.97;1.00;;;23.30;93.60;;;;;;5074244;28;20467;-76
2022/07/09 12:50:12;;;;;;;3.97;1.20;;;23.30;94.90;;;;;;5073791;28;20294;-76
2022/07/09 12:52:40;;;;;;;2.37;1.20;;;23.30;94.40;;;;;;5073740;28;20727;-76
2022/07/09 12:55:09;;;;;;;2.30;1.27;;;23.50;93.80;;;;;;5073909;28;20212;-76
2022/07/09 12:57:38;;;;;;;3.00;1.30;;;23.60;94.00;;;;;;5073814;28;20266;-77
2022/07/09 13:00:08;;;;;;;3.03;1.20;;;23.70;93.60;;;;;;5073893;28;20214;-78
2022/07/09 13:02:36;;;;;;;3.67;1.33;;;23.70;93.00;;;;;;5073732;28;20644;-78